Main page
METAR-TAF:

METAR-TAF

Airports :

Palanga International Airport

Palanga, Lithuania

latitude: 55-55-12N, longitude: 021-03E, elevation: 10 m

Current weather observation

The report was made 10 minutes ago, at 02:20 UTC
Wind 14 kt from the South
Temperature 10°C
Humidity 87%
Pressure 1009 hPa
Visibility 10 km or more

METAR: EYPA 260220Z AUTO 17014KT 9999 BKN011/// 10/08 Q1009

Time: 04:30 (02:30 UTC)

Forecast

The report was made 3 hours and 30 minutes ago, at 23:00 UTC
Forecast valid from 26 at 00 UTC to 26 at 24 UTC
Wind 12 kt from the Southeast
Visibility: 9000 m
Scattered clouds at a height of 500 ft
Becoming
from 26 at 04 UTC to 26 at 06 UTC
Broken clouds at a height of 600 ft
Broken clouds at a height of 1500 ft

TAF: EYPA 252300Z 2600/2624 14012KT 9000 SCT005 BECMG 2604/2606 BKN006 BKN015

Weather observations and forecasts of more than 4000 airports (METAR and TAF reports).

The available stations are represented by yellow and red dots on the map.

Hover mouse over dot to see the name of the station.

Then click to see weather observations and forecasts.

To change the map : click on the green buttons with a black cross to zoom in, on the green button with a dash to zoom out, or on the green arrows for adjacent maps.


METAR-TAF: